createdAt,value
2022-09-13T00:00:34.727Z,97.62
2022-09-13T00:01:34.794Z,97.21
2022-09-13T00:02:34.727Z,97.41
2022-09-13T00:03:34.702Z,97.62
2022-09-13T00:04:34.749Z,97.11
2022-09-13T00:05:34.682Z,96.91
2022-09-13T00:06:34.678Z,96.91
2022-09-13T00:07:34.676Z,97.21
2022-09-13T00:08:34.687Z,97.66
2022-09-13T00:09:34.674Z,97.41
2022-09-13T00:10:34.638Z,97.92
2022-09-13T00:11:34.638Z,97.62
2022-09-13T00:12:34.697Z,97.41
2022-09-13T00:13:34.621Z,97.62
2022-09-13T00:14:34.661Z,97.62
2022-09-13T00:15:34.639Z,97.31
2022-09-13T00:16:34.653Z,97.21
2022-09-13T00:17:34.584Z,97.21
2022-09-13T00:18:34.611Z,97.41
2022-09-13T00:19:34.601Z,96.64
2022-09-13T00:20:34.579Z,97.31
2022-09-13T00:21:34.560Z,97.41
2022-09-13T00:22:34.572Z,97.31
2022-09-13T00:23:34.555Z,97.25
2022-09-13T00:24:34.808Z,97.56
2022-09-13T00:25:34.534Z,97.66
2022-09-13T00:26:34.535Z,97.97
2022-09-13T00:27:34.522Z,97.87
2022-09-13T00:28:34.619Z,97.66
2022-09-13T00:29:34.621Z,97.97
2022-09-13T00:30:34.499Z,97.91
2022-09-13T00:31:34.551Z,97.61
2022-09-13T00:32:34.497Z,97.81
2022-09-13T00:33:34.486Z,98.32
2022-09-13T00:34:34.498Z,97.81
2022-09-13T00:35:34.485Z,97.61
2022-09-13T00:36:34.449Z,98.32
2022-09-13T00:37:34.453Z,98.11
2022-09-13T00:38:34.480Z,97.91
2022-09-13T00:39:34.454Z,98.02
2022-09-13T00:40:34.417Z,98.22
2022-09-13T00:41:34.432Z,98.22
2022-09-13T00:42:34.419Z,98.36
2022-09-13T00:43:34.410Z,98.11
2022-09-13T00:44:34.420Z,98.22
2022-09-13T00:45:34.414Z,97.91
2022-09-13T00:46:34.383Z,97.81
2022-09-13T00:47:34.366Z,98.22
2022-09-13T00:48:34.364Z,98.22
2022-09-13T00:49:34.404Z,98.02
2022-09-13T00:50:34.349Z,98.02
2022-09-13T00:51:34.334Z,98.22
2022-09-13T00:52:34.405Z,98.02
2022-09-13T00:53:34.356Z,98.11
2022-09-13T00:54:34.345Z,98.11
2022-09-13T00:55:35.308Z,98.32
2022-09-13T00:56:34.316Z,98.27
2022-09-13T00:57:34.297Z,98.27
2022-09-13T00:58:34.307Z,98.11
2022-09-13T00:59:34.314Z,98.22
2022-09-13T01:00:34.288Z,98.22
2022-09-13T01:01:34.273Z,98.16
2022-09-13T01:02:34.315Z,98.06
2022-09-13T01:03:34.257Z,98.27
2022-09-13T01:04:34.269Z,98.02
2022-09-13T01:05:34.268Z,98.27
2022-09-13T01:06:34.222Z,98.22
2022-09-13T01:07:34.216Z,98.16
2022-09-13T01:08:34.208Z,98.27
2022-09-13T01:09:34.201Z,98.36
2022-09-13T01:10:34.223Z,98.06
2022-09-13T01:11:34.176Z,97.96
2022-09-13T01:12:34.188Z,98.16
2022-09-13T01:13:34.163Z,99.18
2022-09-13T01:14:34.161Z,98.77
2022-09-13T01:15:34.186Z,98.47
2022-09-13T01:16:34.221Z,98.68
2022-09-13T01:17:34.157Z,98.68
2022-09-13T01:18:34.144Z,98.72
2022-09-13T01:19:34.145Z,98.57
2022-09-13T01:20:34.170Z,98.52
2022-09-13T01:21:34.116Z,98.93
2022-09-13T01:22:34.150Z,98.27
2022-09-13T01:23:34.086Z,98.41
2022-09-13T01:24:34.101Z,98.82
2022-09-13T01:25:34.109Z,99.23
2022-09-13T01:26:34.069Z,99.13
2022-09-13T01:27:34.062Z,99.02
2022-09-13T01:28:34.049Z,99.02
2022-09-13T01:29:34.060Z,99.23
2022-09-13T01:30:34.082Z,99.02
2022-09-13T01:31:34.068Z,99.02
2022-09-13T01:32:34.151Z,99.23
2022-09-13T01:33:34.009Z,98.93
2022-09-13T01:34:34.016Z,99.02
2022-09-13T01:35:34.023Z,99.33
2022-09-13T01:36:33.986Z,99.02
2022-09-13T01:37:33.971Z,99.64
2022-09-13T01:38:33.967Z,99.23
2022-09-13T01:39:33.962Z,99.33
2022-09-13T01:40:33.995Z,99.33
2022-09-13T01:41:33.957Z,99.38
2022-09-13T01:42:33.946Z,99.07
2022-09-13T01:43:33.929Z,99.07
2022-09-13T01:44:33.919Z,99.07
2022-09-13T01:45:33.951Z,99.13
2022-09-13T01:46:33.933Z,99.02
2022-09-13T01:47:33.897Z,99.18
2022-09-13T01:48:33.948Z,99.58
2022-09-13T01:49:33.892Z,99.38
2022-09-13T01:50:33.944Z,99.64
2022-09-13T01:51:33.866Z,99.23
2022-09-13T01:52:33.864Z,99.33
2022-09-13T01:53:33.859Z,99.18
2022-09-13T01:54:33.845Z,99.23
2022-09-13T01:55:33.840Z,98.93
2022-09-13T01:56:33.875Z,99.13
2022-09-13T01:57:33.827Z,99.68
2022-09-13T01:58:33.817Z,99.38
2022-09-13T01:59:33.815Z,99.18
2022-09-13T02:00:33.806Z,99.27
2022-09-13T02:01:33.907Z,99.18
2022-09-13T02:02:33.830Z,99.27
2022-09-13T02:03:33.791Z,99.27
2022-09-13T02:04:33.843Z,99.07
2022-09-13T02:05:33.764Z,99.27
2022-09-13T02:06:33.790Z,99.18
2022-09-13T02:07:33.752Z,99.38
2022-09-13T02:08:33.744Z,99.58
2022-09-13T02:09:33.762Z,99.27
2022-09-13T02:10:33.760Z,99.27
2022-09-13T02:11:33.726Z,99.58
2022-09-13T02:12:33.714Z,99.68
2022-09-13T02:13:33.711Z,99.79
2022-09-13T02:14:33.699Z,99.79
2022-09-13T02:15:33.719Z,99.58
2022-09-13T02:16:33.741Z,99.27
2022-09-13T02:17:33.683Z,99.79
2022-09-13T02:18:33.677Z,99.27
2022-09-13T02:19:33.663Z,99.38
2022-09-13T02:20:33.684Z,99.48
2022-09-13T02:21:33.648Z,99.38
2022-09-13T02:22:33.635Z,99.48
2022-09-13T02:23:33.628Z,99.38
2022-09-13T02:24:34.635Z,99.68
2022-09-13T02:25:33.803Z,99.18
2022-09-13T02:26:33.611Z,99.38
2022-09-13T02:27:33.605Z,99.27
2022-09-13T02:28:33.599Z,99.18
2022-09-13T02:29:33.592Z,99.18
2022-09-13T02:30:33.616Z,99.48
2022-09-13T02:31:33.601Z,99.11
2022-09-13T02:32:33.574Z,99.02
2022-09-13T02:33:33.625Z,99.32
2022-09-13T02:34:33.556Z,99.63
2022-09-13T02:35:33.551Z,99.99
2022-09-13T02:36:33.563Z,99.99
2022-09-13T02:37:33.529Z,99.99
2022-09-13T02:38:33.518Z,99.99
2022-09-13T02:39:34.521Z,99.89
2022-09-13T02:40:33.513Z,99.99
2022-09-13T02:41:33.529Z,99.52
2022-09-13T02:42:33.495Z,99.58
2022-09-13T02:43:33.495Z,99.58
2022-09-13T02:44:33.482Z,99.32
2022-09-13T02:45:33.519Z,99.79
2022-09-13T02:46:33.493Z,99.38
2022-09-13T02:47:33.467Z,99.58
2022-09-13T02:48:37.166Z,99.84
2022-09-13T02:49:34.444Z,99.84
2022-09-13T02:50:33.437Z,99.43
2022-09-13T02:51:33.463Z,99.48
2022-09-13T02:52:33.414Z,99.93
2022-09-13T02:53:33.420Z,99.99
2022-09-13T02:54:33.405Z,99.99
2022-09-13T02:55:33.402Z,99.48
2022-09-13T02:56:33.410Z,99.48
2022-09-13T02:57:33.383Z,98.97
2022-09-13T02:58:33.373Z,98.97
2022-09-13T02:59:33.371Z,99.79
2022-09-13T03:00:33.359Z,99.48
2022-09-13T03:01:33.409Z,99.43
2022-09-13T03:02:33.433Z,99.11
2022-09-13T03:03:33.339Z,98.91
2022-09-13T03:04:33.329Z,99.43
2022-09-13T03:05:33.327Z,98.81
2022-09-13T03:06:33.347Z,99.63
2022-09-13T03:07:33.363Z,99.32
2022-09-13T03:08:33.304Z,99.43
2022-09-13T03:09:33.295Z,99.63
2022-09-13T03:10:33.294Z,99.63
2022-09-13T03:11:33.311Z,99.43
2022-09-13T03:12:33.275Z,99.63
2022-09-13T03:13:33.266Z,99.48
2022-09-13T03:14:33.277Z,99.63
2022-09-13T03:15:33.257Z,99.93
2022-09-13T03:16:33.376Z,99.18
2022-09-13T03:17:33.237Z,99.58
2022-09-13T03:18:33.226Z,99.63
2022-09-13T03:19:33.219Z,99.32
2022-09-13T03:20:33.220Z,99.27
2022-09-13T03:21:33.231Z,99.22
2022-09-13T03:22:33.195Z,99.32
2022-09-13T03:23:33.185Z,99.32
2022-09-13T03:24:33.180Z,99.32
2022-09-13T03:25:33.171Z,99.02
2022-09-13T03:26:33.210Z,99.32
2022-09-13T03:27:33.155Z,99.11
2022-09-13T03:28:33.148Z,99.43
2022-09-13T03:29:33.141Z,99.63
2022-09-13T03:30:33.136Z,99.43
2022-09-13T03:31:33.214Z,99.52
2022-09-13T03:32:33.126Z,99.32
2022-09-13T03:33:33.112Z,99.18
2022-09-13T03:34:33.113Z,99.11
2022-09-13T03:35:33.091Z,99.79
2022-09-13T03:36:33.127Z,99.52
2022-09-13T03:37:33.079Z,99.48
2022-09-13T03:38:33.070Z,99.48
2022-09-13T03:39:33.061Z,99.48
2022-09-13T03:40:33.055Z,98.97
2022-09-13T03:41:33.094Z,99.99
2022-09-13T03:42:33.042Z,99.38
2022-09-13T03:43:33.034Z,99.63
2022-09-13T03:44:33.022Z,99.32
2022-09-13T03:45:33.078Z,99.43
2022-09-13T03:46:33.010Z,99.07
2022-09-13T03:47:33.029Z,99.93
2022-09-13T03:48:32.997Z,99.84
2022-09-13T03:49:32.990Z,99.58
2022-09-13T03:50:32.984Z,99.18
2022-09-13T03:51:32.972Z,99.43
2022-09-13T03:52:32.981Z,99.73
2022-09-13T03:53:32.994Z,99.68
2022-09-13T03:54:32.991Z,99.63
2022-09-13T03:55:32.936Z,99.58
2022-09-13T03:56:32.928Z,99.52
2022-09-13T03:57:32.948Z,99.68
2022-09-13T03:58:32.896Z,99.84
2022-09-13T03:59:33.904Z,99.58
2022-09-13T04:00:32.915Z,99.02
2022-09-13T04:01:32.917Z,99.22
2022-09-13T04:02:33.020Z,99.43
2022-09-13T04:03:32.878Z,99.84
2022-09-13T04:04:32.875Z,99.84
2022-09-13T04:05:32.862Z,99.84
2022-09-13T04:06:32.855Z,99.89
2022-09-13T04:07:32.870Z,99.38
2022-09-13T04:08:32.841Z,99.52
2022-09-13T04:09:32.836Z,99.18
2022-09-13T04:10:32.825Z,99.58
2022-09-13T04:11:32.833Z,99.27
2022-09-13T04:12:32.918Z,99.73
2022-09-13T04:13:32.796Z,99.68
2022-09-13T04:14:33.796Z,99.48
2022-09-13T04:15:32.781Z,99.58
2022-09-13T04:16:32.824Z,99.27
2022-09-13T04:17:32.802Z,98.97
2022-09-13T04:18:32.762Z,99.27
2022-09-13T04:19:32.755Z,99.18
2022-09-13T04:20:32.751Z,99.18
2022-09-13T04:21:32.748Z,99.38
2022-09-13T04:22:32.758Z,98.97
2022-09-13T04:23:32.721Z,98.66
2022-09-13T04:24:32.717Z,98.46
2022-09-13T04:25:32.705Z,99.07
2022-09-13T04:26:32.703Z,99.07
2022-09-13T04:27:32.722Z,99.07
2022-09-13T04:28:32.759Z,99.38
2022-09-13T04:29:32.683Z,99.07
2022-09-13T04:30:32.671Z,99.48
2022-09-13T04:31:32.703Z,98.82
2022-09-13T04:32:32.683Z,98.66
2022-09-13T04:33:32.650Z,98.82
2022-09-13T04:34:32.641Z,98.72
2022-09-13T04:35:32.633Z,98.46
2022-09-13T04:36:32.627Z,98.77
2022-09-13T04:37:32.642Z,98.77
2022-09-13T04:38:32.610Z,98.82
2022-09-13T04:39:32.608Z,98.86
2022-09-13T04:40:32.593Z,98.61
2022-09-13T04:41:32.588Z,98.61
2022-09-13T04:42:32.599Z,98.82
2022-09-13T04:43:32.588Z,98.86
2022-09-13T04:44:32.642Z,98.77
2022-09-13T04:45:32.591Z,98.66
2022-09-13T04:46:32.554Z,98.77
2022-09-13T04:47:32.574Z,98.86
2022-09-13T04:48:32.545Z,98.86
2022-09-13T04:49:32.525Z,98.97
2022-09-13T04:50:32.538Z,98.46
2022-09-13T04:51:32.516Z,98.46
2022-09-13T04:52:32.523Z,98.66
2022-09-13T04:53:32.532Z,98.86
2022-09-13T04:54:32.494Z,98.77
2022-09-13T04:55:32.480Z,98.56
2022-09-13T04:56:32.470Z,98.77
2022-09-13T04:57:32.520Z,98.86
2022-09-13T04:58:32.456Z,98.93
2022-09-13T04:59:32.450Z,98.77
2022-09-13T05:00:32.443Z,98.86
2022-09-13T05:01:32.496Z,98.72
2022-09-13T05:02:32.552Z,98.97
2022-09-13T05:03:32.419Z,98.61
2022-09-13T05:04:32.413Z,98.82
2022-09-13T05:05:32.408Z,98.82
2022-09-13T05:06:32.415Z,99.02
2022-09-13T05:07:32.429Z,98.93
2022-09-13T05:08:32.381Z,98.82
2022-09-13T05:09:32.377Z,99.23
2022-09-13T05:10:32.382Z,98.41
2022-09-13T05:11:32.364Z,99.13
2022-09-13T05:12:32.355Z,98.72
2022-09-13T05:13:32.371Z,99.08
2022-09-13T05:14:32.343Z,99.08
2022-09-13T05:15:32.333Z,98.88
2022-09-13T05:16:32.326Z,98.27
2022-09-13T05:17:32.332Z,98.16
2022-09-13T05:18:32.341Z,98.31
2022-09-13T05:19:32.303Z,98.16
2022-09-13T05:20:32.303Z,98.11
2022-09-13T05:21:32.301Z,98.16
2022-09-13T05:22:32.285Z,98.36
2022-09-13T05:23:32.301Z,97.96
2022-09-13T05:24:32.270Z,98.16
2022-09-13T05:25:32.301Z,98.06
2022-09-13T05:26:32.250Z,98.11
2022-09-13T05:27:32.260Z,98.06
2022-09-13T05:28:32.274Z,98.36
2022-09-13T05:29:32.231Z,97.86
2022-09-13T05:30:32.254Z,97.96
2022-09-13T05:31:32.295Z,97.96
2022-09-13T05:32:32.210Z,97.96
2022-09-13T05:33:32.258Z,97.96
2022-09-13T05:34:32.196Z,97.96
2022-09-13T05:35:32.204Z,97.96
2022-09-13T05:36:32.178Z,98.02
2022-09-13T05:37:32.168Z,97.81
2022-09-13T05:38:32.182Z,97.91
2022-09-13T05:39:48.420Z,97.71
2022-09-13T05:40:34.166Z,97.81
2022-09-13T05:41:32.142Z,97.81
2022-09-13T05:42:32.129Z,97.50
2022-09-13T05:43:32.146Z,97.71
2022-09-13T05:44:32.115Z,98.02
2022-09-13T05:45:32.100Z,97.50
2022-09-13T05:46:32.110Z,97.81
2022-09-13T05:47:32.091Z,97.40
2022-09-13T05:48:32.171Z,97.30
2022-09-13T05:49:32.078Z,97.71
2022-09-13T05:50:57.427Z,98.02
2022-09-13T05:51:34.072Z,97.30
2022-09-13T05:52:32.053Z,97.61
2022-09-13T05:53:32.075Z,98.02
2022-09-13T05:54:32.035Z,97.30
2022-09-13T05:55:32.031Z,97.81
2022-09-13T05:56:32.040Z,98.02
2022-09-13T05:57:32.014Z,97.25
2022-09-13T05:58:32.029Z,97.25
2022-09-13T05:59:32.027Z,97.46
2022-09-13T06:00:31.986Z,97.87
2022-09-13T06:01:32.027Z,97.97
2022-09-13T06:02:32.032Z,97.46
2022-09-13T06:03:32.016Z,97.77
2022-09-13T06:04:31.967Z,97.87
2022-09-13T06:05:32.124Z,98.18
2022-09-13T06:06:32.946Z,97.87
2022-09-13T06:07:31.927Z,97.97
2022-09-13T06:08:31.932Z,98.18
2022-09-13T06:09:31.947Z,98.27
2022-09-13T06:10:31.939Z,97.87
2022-09-13T06:11:31.908Z,97.87
2022-09-13T06:12:31.903Z,97.97
2022-09-13T06:13:31.918Z,97.97
2022-09-13T06:14:31.883Z,98.18
2022-09-13T06:15:31.878Z,98.18
2022-09-13T06:16:31.898Z,98.07
2022-09-13T06:17:31.861Z,97.72
2022-09-13T06:18:31.874Z,97.97
2022-09-13T06:19:31.844Z,97.82
2022-09-13T06:20:31.831Z,98.18
2022-09-13T06:21:31.826Z,98.07
2022-09-13T06:22:31.892Z,98.89
2022-09-13T06:23:31.841Z,98.64
2022-09-13T06:24:31.804Z,98.54
2022-09-13T06:25:31.797Z,98.99
2022-09-13T06:26:31.793Z,98.68
2022-09-13T06:27:31.783Z,98.54
2022-09-13T06:28:36.672Z,99.09
2022-09-13T06:29:33.765Z,99.19
2022-09-13T06:30:31.792Z,98.84
2022-09-13T06:31:31.843Z,98.89
2022-09-13T06:32:31.743Z,99.09
2022-09-13T06:33:31.760Z,98.84
2022-09-13T06:34:31.757Z,99.15
2022-09-13T06:35:31.721Z,99.25
2022-09-13T06:36:31.713Z,98.74
2022-09-13T06:37:31.708Z,98.84
2022-09-13T06:38:31.743Z,98.74
2022-09-13T06:39:31.695Z,98.94
2022-09-13T06:40:31.756Z,98.84
2022-09-13T06:41:31.685Z,99.04
2022-09-13T06:42:31.666Z,98.74
2022-09-13T06:43:31.684Z,99.04
2022-09-13T06:44:31.655Z,98.64
2022-09-13T06:45:31.654Z,98.84
2022-09-13T06:46:31.667Z,98.90
2022-09-13T06:47:32.622Z,99.04
2022-09-13T06:48:31.653Z,98.79
2022-09-13T06:49:31.613Z,99.15
2022-09-13T06:50:31.622Z,98.64
2022-09-13T06:51:31.596Z,99.04
2022-09-13T06:52:31.606Z,98.23
2022-09-13T06:53:31.609Z,98.90
2022-09-13T06:54:31.583Z,98.90
2022-09-13T06:55:31.579Z,98.18
2022-09-13T06:56:31.563Z,98.49
2022-09-13T06:57:31.556Z,97.98
2022-09-13T06:58:31.587Z,98.08
2022-09-13T06:59:31.552Z,98.44
2022-09-13T07:00:31.560Z,98.75
2022-09-13T07:01:31.644Z,98.14
2022-09-13T07:02:31.515Z,98.08
2022-09-13T07:03:31.532Z,98.34
2022-09-13T07:04:31.507Z,98.14
2022-09-13T07:05:31.502Z,97.93
2022-09-13T07:06:31.484Z,97.93
2022-09-13T07:07:31.474Z,97.73
2022-09-13T07:08:31.518Z,97.58
2022-09-13T07:09:31.457Z,97.69
2022-09-13T07:10:31.448Z,97.99
2022-09-13T07:11:31.445Z,97.48
2022-09-13T07:12:31.438Z,97.17
2022-09-13T07:13:31.460Z,97.07
2022-09-13T07:14:31.428Z,97.17
2022-09-13T07:15:31.450Z,97.28
2022-09-13T07:16:31.408Z,97.53
2022-09-13T07:17:31.658Z,97.53
2022-09-13T07:18:32.416Z,97.42
2022-09-13T07:19:31.388Z,97.22
2022-09-13T07:20:31.376Z,98.03
2022-09-13T07:21:31.372Z,97.73
2022-09-13T07:22:31.345Z,97.38
2022-09-13T07:23:32.350Z,97.38
2022-09-13T07:24:31.432Z,97.78
2022-09-13T07:25:31.338Z,97.89
2022-09-13T07:26:31.333Z,97.69
2022-09-13T07:27:31.322Z,97.99
2022-09-13T07:28:35.231Z,97.89
2022-09-13T07:29:32.329Z,97.99
2022-09-13T07:30:31.304Z,97.28
2022-09-13T07:31:31.362Z,97.84
2022-09-13T07:32:31.284Z,97.64
2022-09-13T07:33:31.271Z,97.44
2022-09-13T07:34:31.290Z,97.03
2022-09-13T07:35:31.265Z,97.44
2022-09-13T07:36:31.255Z,97.03
2022-09-13T07:37:31.241Z,96.72
2022-09-13T07:38:31.241Z,96.58
2022-09-13T07:39:31.253Z,96.98
2022-09-13T07:40:31.217Z,97.08
2022-09-13T07:41:31.223Z,96.78
2022-09-13T07:42:31.206Z,96.33
2022-09-13T07:43:31.221Z,96.43
2022-09-13T07:44:31.217Z,95.87
2022-09-13T07:45:31.184Z,95.41
2022-09-13T07:46:31.223Z,95.47
2022-09-13T07:47:31.173Z,95.06
2022-09-13T07:48:33.516Z,94.35
2022-09-13T07:49:32.186Z,94.76
2022-09-13T07:50:31.156Z,94.35
2022-09-13T07:51:31.147Z,94.25
2022-09-13T07:52:31.131Z,94.56
2022-09-13T07:53:31.135Z,93.90
2022-09-13T07:54:31.149Z,94.82
2022-09-13T07:55:31.129Z,93.70
2022-09-13T07:56:31.175Z,93.80
2022-09-13T07:57:31.113Z,93.60
2022-09-13T07:58:31.092Z,93.90
2022-09-13T07:59:31.143Z,93.55
2022-09-13T08:00:31.076Z,93.35
2022-09-13T08:01:31.175Z,93.35
2022-09-13T08:02:31.187Z,93.00
2022-09-13T08:03:31.052Z,92.90
2022-09-13T08:04:35.697Z,93.06
2022-09-13T08:05:33.034Z,93.37
2022-09-13T08:06:31.060Z,92.82
2022-09-13T08:07:31.029Z,93.12
2022-09-13T08:08:31.054Z,92.31
2022-09-13T08:09:31.032Z,92.82
2022-09-13T08:10:31.001Z,91.90
2022-09-13T08:11:30.989Z,92.21
2022-09-13T08:12:30.992Z,92.71
2022-09-13T08:13:30.982Z,91.80
2022-09-13T08:14:30.999Z,91.54
2022-09-13T08:15:30.997Z,92.05
2022-09-13T08:16:30.952Z,92.55
2022-09-13T08:17:30.947Z,93.06
2022-09-13T08:18:30.936Z,93.37
2022-09-13T08:19:30.960Z,93.22
2022-09-13T08:20:30.929Z,92.82
2022-09-13T08:21:30.918Z,93.02
2022-09-13T08:22:30.912Z,92.91
2022-09-13T08:23:30.909Z,92.77
2022-09-13T08:24:30.917Z,92.61
2022-09-13T08:25:30.886Z,93.02
2022-09-13T08:26:30.882Z,92.97
2022-09-13T08:27:30.870Z,92.47
2022-09-13T08:28:30.931Z,92.77
2022-09-13T08:29:30.884Z,91.96
2022-09-13T08:30:30.847Z,91.46
2022-09-13T08:31:30.837Z,91.66
2022-09-13T08:32:30.827Z,91.46
2022-09-13T08:33:30.821Z,92.12
2022-09-13T08:34:30.840Z,92.63
2022-09-13T08:35:30.814Z,91.82
2022-09-13T08:36:30.800Z,91.31
2022-09-13T08:37:30.794Z,90.50
2022-09-13T08:38:30.785Z,91.20
2022-09-13T08:39:33.495Z,91.20
2022-09-13T08:40:30.777Z,90.45
2022-09-13T08:41:30.760Z,90.05
2022-09-13T08:42:30.746Z,91.06
2022-09-13T08:43:30.743Z,91.27
2022-09-13T08:44:30.766Z,91.02
2022-09-13T08:45:30.729Z,90.72
2022-09-13T08:46:30.784Z,90.82
2022-09-13T08:47:30.720Z,89.70
2022-09-13T08:48:30.711Z,89.91
2022-09-13T08:49:30.740Z,90.17
2022-09-13T08:50:30.696Z,88.79
2022-09-13T08:51:30.691Z,89.46
2022-09-13T08:52:30.688Z,89.36
2022-09-13T08:53:30.674Z,88.85
2022-09-13T08:54:30.691Z,89.06
2022-09-13T08:55:30.661Z,88.25
2022-09-13T08:56:30.649Z,88.85
2022-09-13T08:57:30.645Z,88.45
2022-09-13T08:58:30.644Z,88.85
2022-09-13T08:59:30.622Z,88.85
2022-09-13T09:00:30.644Z,88.92
2022-09-13T09:01:30.652Z,88.61
2022-09-13T09:02:30.663Z,88.57
2022-09-13T09:03:30.594Z,88.47
2022-09-13T09:04:30.586Z,88.37
2022-09-13T09:05:30.628Z,88.53
2022-09-13T09:06:30.569Z,88.08
2022-09-13T09:07:30.566Z,86.77
2022-09-13T09:08:30.555Z,86.77
2022-09-13T09:09:30.555Z,87.07
2022-09-13T09:10:30.565Z,86.47
2022-09-13T09:11:30.527Z,86.67
2022-09-13T09:12:30.527Z,86.67
2022-09-13T09:13:30.523Z,86.02
2022-09-13T09:14:30.525Z,85.52
2022-09-13T09:15:30.586Z,86.43
2022-09-13T09:16:30.561Z,86.02
2022-09-13T09:17:30.489Z,84.97
2022-09-13T09:18:30.477Z,84.77
2022-09-13T09:19:30.498Z,84.94
2022-09-13T09:20:30.461Z,84.13
2022-09-13T09:21:30.454Z,84.39
2022-09-13T09:22:30.445Z,84.09
2022-09-13T09:23:30.434Z,83.84
2022-09-13T09:24:30.457Z,82.88
2022-09-13T09:25:30.425Z,82.71
2022-09-13T09:26:30.464Z,81.91
2022-09-13T09:27:30.411Z,82.71
2022-09-13T09:28:30.401Z,82.82
2022-09-13T09:29:30.420Z,82.01
2022-09-13T09:30:30.379Z,82.86
2022-09-13T09:31:30.376Z,83.26
2022-09-13T09:32:30.370Z,83.22
2022-09-13T09:33:30.358Z,83.79
2022-09-13T09:34:30.354Z,83.18
2022-09-13T09:35:30.366Z,82.78
2022-09-13T09:36:30.336Z,82.04
2022-09-13T09:37:30.321Z,81.27
2022-09-13T09:38:30.318Z,81.77
2022-09-13T09:39:30.357Z,81.81
2022-09-13T09:40:31.808Z,82.42
2022-09-13T09:41:31.297Z,81.91
2022-09-13T09:42:30.302Z,82.88
2022-09-13T09:43:30.298Z,81.57
2022-09-13T09:44:30.280Z,82.54
2022-09-13T09:45:30.290Z,81.33
2022-09-13T09:46:30.304Z,82.20
2022-09-13T09:47:30.257Z,80.58
2022-09-13T09:48:30.368Z,81.65
2022-09-13T09:49:30.246Z,80.81
2022-09-13T09:50:30.253Z,80.61
2022-09-13T09:51:30.222Z,80.37
2022-09-13T09:52:30.213Z,79.27
2022-09-13T09:53:34.855Z,79.77
2022-09-13T09:54:32.195Z,80.61
2022-09-13T09:55:30.218Z,79.41
2022-09-13T09:56:30.181Z,79.47
2022-09-13T09:57:30.178Z,80.07
2022-09-13T09:58:30.163Z,79.67
2022-09-13T09:59:30.162Z,79.17
2022-09-13T10:00:30.180Z,79.13
2022-09-13T10:01:30.229Z,79.23
2022-09-13T10:02:30.176Z,78.73
2022-09-13T10:03:31.130Z,78.83
2022-09-13T10:04:30.123Z,79.33
2022-09-13T10:05:30.143Z,78.22
2022-09-13T10:06:30.137Z,78.33
2022-09-13T10:07:30.104Z,78.73
2022-09-13T10:08:30.097Z,78.53
2022-09-13T10:09:30.107Z,78.39
2022-09-13T10:10:30.105Z,77.92
2022-09-13T10:11:30.074Z,78.59
2022-09-13T10:12:30.066Z,78.49
2022-09-13T10:13:31.978Z,78.09
2022-09-13T10:14:31.046Z,77.59
2022-09-13T10:15:30.086Z,77.59
2022-09-13T10:16:30.093Z,77.89
2022-09-13T10:17:30.014Z,76.98
2022-09-13T10:18:43.969Z,77.09
2022-09-13T10:19:32.099Z,77.79
2022-09-13T10:20:30.047Z,78.85
2022-09-13T10:21:30.020Z,77.21
2022-09-13T10:22:30.028Z,76.91
2022-09-13T10:23:29.986Z,77.11
2022-09-13T10:24:29.973Z,76.78
2022-09-13T10:25:29.975Z,75.87
2022-09-13T10:26:29.990Z,76.04
2022-09-13T10:27:29.958Z,75.34
2022-09-13T10:28:29.948Z,75.23
2022-09-13T10:29:29.938Z,74.90
2022-09-13T10:30:29.967Z,73.43
2022-09-13T10:31:29.956Z,74.90
2022-09-13T10:32:29.921Z,75.00
2022-09-13T10:33:29.910Z,73.60
2022-09-13T10:34:29.901Z,73.36
2022-09-13T10:35:29.896Z,74.37
2022-09-13T10:36:51.224Z,74.37
2022-09-13T10:37:31.883Z,74.53
2022-09-13T10:38:29.877Z,73.63
2022-09-13T10:39:29.862Z,73.13
2022-09-13T10:40:29.858Z,73.39
2022-09-13T10:41:29.877Z,71.96
2022-09-13T10:42:29.848Z,71.56
2022-09-13T10:43:29.833Z,71.16
2022-09-13T10:44:29.826Z,70.46
2022-09-13T10:45:29.828Z,70.76
2022-09-13T10:46:29.835Z,70.36
2022-09-13T10:47:29.802Z,70.36
2022-09-13T10:48:29.794Z,70.66
2022-09-13T10:49:29.786Z,71.16
2022-09-13T10:50:29.782Z,70.09
2022-09-13T10:51:29.837Z,70.36
2022-09-13T10:52:29.771Z,70.56
2022-09-13T10:53:29.757Z,70.42
2022-09-13T10:54:29.756Z,69.82
2022-09-13T10:55:29.749Z,68.43
2022-09-13T10:56:29.761Z,69.13
2022-09-13T10:57:29.728Z,68.33
2022-09-13T10:58:29.719Z,69.32
2022-09-13T10:59:29.711Z,69.62
2022-09-13T11:00:29.731Z,69.20
2022-09-13T11:01:29.751Z,68.99
2022-09-13T11:02:29.695Z,70.19
2022-09-13T11:03:29.688Z,68.59
2022-09-13T11:04:29.711Z,67.72
2022-09-13T11:05:29.689Z,68.70
2022-09-13T11:06:29.688Z,67.19
2022-09-13T11:07:29.647Z,66.80
2022-09-13T11:08:29.640Z,67.93
2022-09-13T11:09:29.638Z,67.76
2022-09-13T11:10:29.625Z,66.86
2022-09-13T11:11:29.645Z,66.47
2022-09-13T11:12:29.611Z,64.77
2022-09-13T11:13:29.602Z,66.56
2022-09-13T11:14:29.594Z,67.16
2022-09-13T11:15:29.587Z,66.86
2022-09-13T11:16:29.658Z,66.86
2022-09-13T11:17:29.570Z,65.44
2022-09-13T11:18:29.557Z,66.24
2022-09-13T11:19:29.554Z,66.53
2022-09-13T11:20:29.550Z,66.03
2022-09-13T11:21:29.541Z,66.24
2022-09-13T11:22:29.558Z,66.70
2022-09-13T11:23:29.586Z,66.30
2022-09-13T11:24:29.520Z,65.91
2022-09-13T11:25:29.504Z,65.37
2022-09-13T11:26:29.494Z,65.91
2022-09-13T11:27:29.523Z,65.17
2022-09-13T11:28:29.477Z,65.11
2022-09-13T11:29:29.465Z,64.90
2022-09-13T11:30:30.232Z,65.17
2022-09-13T11:31:30.531Z,64.51
2022-09-13T11:32:29.481Z,66.30
2022-09-13T11:33:29.442Z,64.41
2022-09-13T11:34:29.449Z,65.20
2022-09-13T11:35:30.824Z,65.17
2022-09-13T11:36:31.823Z,65.24
2022-09-13T11:37:37.334Z,64.94
2022-09-13T11:38:33.393Z,64.34
2022-09-13T11:39:55.384Z,63.25
2022-09-13T11:40:33.102Z,64.42
2022-09-13T11:41:38.826Z,63.15
2022-09-13T11:42:34.445Z,63.45
2022-09-13T11:43:35.833Z,63.65
2022-09-13T11:44:29.409Z,64.34
2022-09-13T11:45:29.424Z,64.04
2022-09-13T11:46:29.353Z,64.37
2022-09-13T11:47:29.364Z,63.75
2022-09-13T11:48:29.332Z,64.34
2022-09-13T11:49:29.329Z,63.92
2022-09-13T11:50:29.316Z,64.34
2022-09-13T11:51:29.309Z,64.34
2022-09-13T11:52:29.338Z,64.97
2022-09-13T11:53:30.210Z,65.77
2022-09-13T11:54:30.287Z,65.64
2022-09-13T11:55:29.286Z,66.53
2022-09-13T11:56:29.277Z,64.25
2022-09-13T11:57:29.319Z,64.54
2022-09-13T11:58:29.269Z,65.47
2022-09-13T11:59:29.252Z,64.97
2022-09-13T12:00:29.243Z,65.67
2022-09-13T12:01:29.237Z,65.54
2022-09-13T12:02:29.359Z,65.97
2022-09-13T12:03:29.286Z,65.47
2022-09-13T12:04:33.577Z,65.84
2022-09-13T12:05:30.215Z,65.44
2022-09-13T12:06:29.204Z,66.04
2022-09-13T12:07:29.236Z,65.14
2022-09-13T12:08:29.182Z,65.54
2022-09-13T12:09:29.180Z,64.97
2022-09-13T12:10:29.229Z,65.44
2022-09-13T12:11:29.178Z,65.14
2022-09-13T12:12:29.266Z,66.24
2022-09-13T12:13:29.143Z,66.31
2022-09-13T12:14:29.129Z,65.11
2022-09-13T12:15:29.122Z,65.11
2022-09-13T12:16:31.919Z,64.72
2022-09-13T12:17:30.139Z,64.51
2022-09-13T12:18:29.105Z,64.31
2022-09-13T12:19:29.093Z,64.01
2022-09-13T12:20:29.089Z,64.42
2022-09-13T12:21:29.093Z,64.51
2022-09-13T12:22:30.995Z,63.02
2022-09-13T12:23:30.059Z,63.02
2022-09-13T12:24:29.045Z,63.49
2022-09-13T12:25:29.046Z,63.98
2022-09-13T12:26:29.561Z,63.26
2022-09-13T12:27:29.028Z,62.66
2022-09-13T12:28:29.046Z,62.76
2022-09-13T12:29:29.017Z,62.43
2022-09-13T12:30:29.007Z,61.34
2022-09-13T12:31:29.091Z,62.43
2022-09-13T12:32:28.998Z,62.04
2022-09-13T12:33:29.018Z,62.30
2022-09-13T12:34:28.994Z,61.21
2022-09-13T12:35:28.966Z,60.31
2022-09-13T12:36:28.962Z,59.49
2022-09-13T12:37:28.951Z,60.58
2022-09-13T12:38:31.556Z,59.39
2022-09-13T12:39:29.954Z,59.59
2022-09-13T12:40:28.930Z,59.49
2022-09-13T12:41:28.919Z,60.06
2022-09-13T12:42:28.986Z,59.53
2022-09-13T12:43:28.934Z,59.44
2022-09-13T12:44:33.397Z,59.31
2022-09-13T12:45:29.915Z,58.04
2022-09-13T12:46:28.879Z,59.44
2022-09-13T12:47:28.875Z,58.54
2022-09-13T12:48:28.897Z,59.63
2022-09-13T12:49:28.862Z,58.54
2022-09-13T12:50:43.038Z,58.74
2022-09-13T12:51:30.849Z,58.74
2022-09-13T12:52:28.836Z,57.82